Time;durP1;ratioP1;P1;durP2;ratioP2;P2;SDS_P1;SDS_P2;PMS_P1;PMS_P2;Temp;Humidity;BMP_temperature;BMP_pressure;BME280_temperature;BME280_humidity;BME280_pressure;Samples;Min_cycle;Max_cycle;Signal;HPM_P1;HPM_P2
2023/06/27 00:00:34;;;;;;;3.10;1.73;;;;;;;22.23;64.86;98454.84;4156560;28;20762;-78
2023/06/27 00:02:39;;;;;;;3.03;2.00;;;;;;;22.24;64.53;98462.63;4153455;28;20653;-78
2023/06/27 00:04:42;;;;;;;5.13;2.30;;;;;;;22.25;64.76;98459.81;4170519;28;21123;-78
2023/06/27 00:06:45;;;;;;;5.20;2.10;;;;;;;22.26;65.01;98460.63;4174416;28;20651;-78
2023/06/27 00:08:49;;;;;;;3.57;1.80;;;;;;;22.27;64.45;98468.44;4173845;28;20694;-78
2023/06/27 00:10:52;;;;;;;4.30;1.87;;;;;;;22.27;64.62;98457.00;4170682;28;20654;-78
2023/06/27 00:12:56;;;;;;;3.00;2.10;;;;;;;22.25;64.82;98462.47;4174415;28;20738;-78
2023/06/27 00:15:04;;;;;;;3.03;1.73;;;;;;;22.21;65.30;98462.97;4174307;28;20707;-78
2023/06/27 00:17:11;;;;;;;4.20;2.33;;;;;;;22.12;65.41;98465.78;4158408;28;20636;-78
2023/06/27 00:19:15;;;;;;;2.90;2.07;;;;;;;22.03;66.61;98470.25;4166628;28;20666;-78
2023/06/27 00:21:18;;;;;;;4.90;1.77;;;;;;;21.97;65.95;98467.44;4153699;28;20648;-78
2023/06/27 00:23:23;;;;;;;2.20;1.80;;;;;;;21.92;66.86;98462.63;4173650;28;20738;-78
2023/06/27 00:25:26;;;;;;;3.23;2.00;;;;;;;21.88;67.41;98471.09;4169594;28;20651;-78
2023/06/27 00:27:29;;;;;;;2.67;1.50;;;;;;;21.83;67.66;98468.06;4172337;28;20675;-78
2023/06/27 00:29:33;;;;;;;3.20;2.00;;;;;;;21.77;68.04;98463.44;4164140;28;21026;-79
2023/06/27 00:31:36;;;;;;;3.70;2.20;;;;;;;21.73;67.26;98472.72;4138637;28;20636;-78
2023/06/27 00:33:42;;;;;;;3.73;1.87;;;;;;;21.67;67.22;98465.41;4173437;28;20642;-78
2023/06/27 00:35:50;;;;;;;3.63;1.60;;;;;;;21.65;67.43;98469.22;4159036;28;21264;-78
2023/06/27 00:37:53;;;;;;;4.30;2.17;;;;;;;21.61;67.97;98468.72;4171109;28;21706;-78
2023/06/27 00:39:57;;;;;;;2.67;1.80;;;;;;;21.54;68.67;98473.00;4169900;28;20991;-78
2023/06/27 00:42:00;;;;;;;3.33;2.07;;;;;;;21.49;68.49;98474.53;4172488;28;21038;-78
2023/06/27 00:44:07;;;;;;;3.33;2.07;;;;;;;21.45;69.53;98476.66;4175666;28;20630;-78
2023/06/27 00:46:11;;;;;;;4.50;1.93;;;;;;;21.41;68.73;98477.94;4169510;28;21005;-78
2023/06/27 00:48:15;;;;;;;4.80;2.03;;;;;;;21.38;67.51;98472.16;4184229;28;20634;-78
2023/06/27 00:50:20;;;;;;;3.17;2.00;;;;;;;21.34;67.17;98479.56;4174908;28;20654;-78
2023/06/27 00:52:25;;;;;;;4.30;1.70;;;;;;;21.32;69.26;98478.09;4158183;28;20671;-78
2023/06/27 00:54:28;;;;;;;5.80;1.90;;;;;;;21.29;69.22;98479.25;4169504;28;20642;-78
2023/06/27 00:56:31;;;;;;;3.20;2.00;;;;;;;21.28;69.46;98482.88;4167871;28;20626;-78
2023/06/27 00:58:34;;;;;;;3.00;2.07;;;;;;;21.27;70.22;98485.69;4158046;28;21072;-78
2023/06/27 01:00:38;;;;;;;3.20;2.10;;;;;;;21.26;69.55;98483.19;4170737;28;21017;-78
2023/06/27 01:02:46;;;;;;;3.27;2.10;;;;;;;21.26;69.85;98484.06;4153693;28;21212;-78
2023/06/27 01:04:50;;;;;;;2.87;2.20;;;;;;;21.27;69.25;98491.00;4172432;28;21241;-78
2023/06/27 01:06:58;;;;;;;2.30;1.50;;;;;;;21.25;70.14;98490.34;4155343;28;20717;-78
2023/06/27 01:09:07;;;;;;;2.70;1.70;;;;;;;21.23;69.44;98479.06;4169037;28;20653;-78
2023/06/27 01:11:14;;;;;;;3.03;1.80;;;;;;;21.19;71.21;98485.66;4172340;28;20650;-78
2023/06/27 01:13:20;;;;;;;2.80;1.60;;;;;;;21.17;70.77;98489.47;4170893;28;21033;-78
2023/06/27 01:15:23;;;;;;;4.17;2.03;;;;;;;21.18;68.96;98491.97;4173308;28;20664;-78
2023/06/27 01:17:28;;;;;;;4.43;2.03;;;;;;;21.19;69.90;98492.81;4169029;28;20648;-78
2023/06/27 01:19:32;;;;;;;2.60;1.87;;;;;;;21.17;70.14;98497.44;4156334;28;20617;-78
2023/06/27 01:21:36;;;;;;;2.70;2.10;;;;;;;21.16;69.27;98501.91;4172040;28;20621;-78
2023/06/27 01:23:50;;;;;;;4.00;2.40;;;;;;;21.09;70.03;98492.91;4171885;28;20633;-78
2023/06/27 01:25:55;;;;;;;2.67;1.80;;;;;;;21.05;70.67;98490.75;4163908;28;20622;-78
2023/06/27 01:27:58;;;;;;;3.27;1.97;;;;;;;21.01;70.49;98492.88;4167981;28;20730;-78
2023/06/27 01:30:02;;;;;;;2.90;2.30;;;;;;;20.95;71.31;98493.53;4156423;28;20636;-78
2023/06/27 01:32:09;;;;;;;2.60;1.97;;;;;;;20.89;71.51;98496.00;4168073;28;20740;-78
2023/06/27 01:34:17;;;;;;;3.10;2.20;;;;;;;20.84;71.90;98487.69;4170341;28;20640;-78
2023/06/27 01:36:26;;;;;;;2.50;1.80;;;;;;;20.81;72.92;98499.44;4169111;28;20780;-78
2023/06/27 01:38:34;;;;;;;5.30;2.10;;;;;;;20.80;71.08;98494.28;4151812;28;20631;-78
2023/06/27 01:40:39;;;;;;;2.80;2.00;;;;;;;20.76;70.35;98484.97;4169864;28;20649;-78
2023/06/27 01:42:44;;;;;;;7.00;2.40;;;;;;;20.74;70.34;98489.63;4152337;28;20919;-78
2023/06/27 01:44:48;;;;;;;2.77;1.93;;;;;;;20.69;72.06;98491.91;4157736;28;20635;-78
2023/06/27 01:46:52;;;;;;;2.97;2.00;;;;;;;20.65;72.71;98489.69;4155058;28;20654;-78
2023/06/27 01:48:56;;;;;;;6.47;2.50;;;;;;;20.60;72.20;98489.34;4172299;28;20630;-78
2023/06/27 01:50:59;;;;;;;5.00;2.20;;;;;;;20.56;71.36;98493.28;4170016;28;20661;-78
2023/06/27 01:53:03;;;;;;;3.50;2.03;;;;;;;20.55;70.40;98497.78;4155173;28;20722;-78
2023/06/27 01:55:07;;;;;;;3.00;1.93;;;;;;;20.52;71.11;98491.94;4173165;28;20984;-78
2023/06/27 01:57:12;;;;;;;3.13;1.90;;;;;;;20.48;71.05;98490.59;4157381;28;20660;-78
2023/06/27 01:59:17;;;;;;;2.80;1.93;;;;;;;20.43;71.60;98488.41;4153730;28;20682;-78
2023/06/27 02:01:20;;;;;;;3.40;1.90;;;;;;;20.41;70.22;98485.06;4170789;28;20650;-78
2023/06/27 02:03:23;;;;;;;2.83;2.50;;;;;;;20.41;71.59;98497.50;4167364;28;21265;-78
2023/06/27 02:05:26;;;;;;;4.20;1.90;;;;;;;20.41;71.94;98494.84;4168554;28;20640;-78
2023/06/27 02:07:29;;;;;;;3.20;2.30;;;;;;;20.44;72.82;98495.34;4155651;28;21249;-78
2023/06/27 02:09:33;;;;;;;4.47;2.27;;;;;;;20.47;72.17;98499.53;4172264;28;20632;-78
2023/06/27 02:11:36;;;;;;;3.10;2.00;;;;;;;20.43;72.65;98493.72;4170030;28;20757;-78
2023/06/27 02:13:40;;;;;;;3.30;1.93;;;;;;;20.38;72.31;98495.16;4150002;28;20739;-78
2023/06/27 02:15:43;;;;;;;3.30;2.20;;;;;;;20.34;71.95;98497.28;4162692;28;20631;-78
2023/06/27 02:17:47;;;;;;;4.23;2.40;;;;;;;20.31;72.13;98498.56;4185196;28;20683;-78
2023/06/27 02:19:50;;;;;;;5.20;2.03;;;;;;;20.27;73.57;98503.34;4161096;28;21085;-78
2023/06/27 02:21:53;;;;;;;2.70;1.83;;;;;;;20.28;72.55;98501.53;4168117;28;20689;-78
2023/06/27 02:23:57;;;;;;;3.20;2.20;;;;;;;20.27;74.02;98491.94;4167877;28;20658;-78
2023/06/27 02:26:02;;;;;;;3.70;1.90;;;;;;;20.27;74.06;98503.34;4168321;28;20704;-78
2023/06/27 02:28:05;;;;;;;3.20;2.13;;;;;;;20.28;73.14;98496.22;4171555;28;20646;-78
2023/06/27 02:30:11;;;;;;;4.30;2.50;;;;;;;20.28;73.42;98497.06;4168152;28;20635;-78
2023/06/27 02:32:14;;;;;;;3.00;2.20;;;;;;;20.28;73.91;98489.09;4171870;28;21645;-78
2023/06/27 02:34:17;;;;;;;6.30;2.70;;;;;;;20.28;74.04;98485.63;4172745;28;21209;-78
2023/06/27 02:36:22;;;;;;;2.50;1.93;;;;;;;20.25;74.36;98486.78;4166951;28;20638;-78
2023/06/27 02:38:25;;;;;;;3.63;2.30;;;;;;;20.26;72.54;98484.97;4166633;28;20727;-78
2023/06/27 02:40:28;;;;;;;5.10;2.33;;;;;;;20.23;75.22;98488.75;4152049;28;20670;-78
2023/06/27 02:42:32;;;;;;;4.00;2.10;;;;;;;20.23;73.58;98485.28;4144047;28;20642;-78
2023/06/27 02:44:35;;;;;;;3.40;2.23;;;;;;;20.22;75.03;98483.59;4166759;28;20643;-78
2023/06/27 02:46:39;;;;;;;3.07;2.50;;;;;;;20.20;73.94;98481.09;4166549;28;20670;-78
2023/06/27 02:48:43;;;;;;;3.17;2.60;;;;;;;20.18;73.66;98485.75;4156574;28;20634;-78
2023/06/27 02:50:50;;;;;;;3.55;2.25;;;;;;;20.17;74.88;98486.72;4169952;28;20683;-78
2023/06/27 02:52:53;;;;;;;2.50;1.90;;;;;;;20.19;75.43;98490.06;4167916;28;21219;-78
2023/06/27 02:54:57;;;;;;;2.50;1.93;;;;;;;20.20;73.88;98497.00;4156414;28;20728;-78
2023/06/27 02:57:00;;;;;;;3.67;2.10;;;;;;;20.19;74.01;98497.16;4152092;28;20728;-78
2023/06/27 02:59:03;;;;;;;3.13;2.10;;;;;;;20.18;74.14;98490.22;4182971;28;20639;-78
2023/06/27 03:01:07;;;;;;;3.20;2.37;;;;;;;20.17;75.14;98496.50;4167957;28;20714;-78
2023/06/27 03:03:17;;;;;;;3.07;2.10;;;;;;;20.19;75.76;98494.50;4161069;28;20646;-78
2023/06/27 03:05:20;;;;;;;3.07;2.40;;;;;;;20.19;75.45;98500.66;4169890;28;20652;-78
2023/06/27 03:07:24;;;;;;;5.50;2.50;;;;;;;20.18;74.71;98498.16;4152721;28;20772;-77
2023/06/27 03:09:27;;;;;;;3.10;2.30;;;;;;;20.16;75.22;98495.66;4155895;28;20644;-78
2023/06/27 03:11:30;;;;;;;4.10;2.33;;;;;;;20.14;74.12;98499.44;4165773;28;20658;-78
2023/06/27 03:13:34;;;;;;;4.60;2.43;;;;;;;20.13;74.23;98501.28;4168767;28;20691;-78
2023/06/27 03:15:37;;;;;;;2.73;1.93;;;;;;;20.11;73.87;98502.41;4158913;28;21289;-78
2023/06/27 03:17:41;;;;;;;3.87;2.20;;;;;;;20.11;75.03;98503.22;4172275;28;20653;-78
2023/06/27 03:19:47;;;;;;;2.87;2.23;;;;;;;20.08;74.96;98497.41;4186686;28;20636;-77
2023/06/27 03:21:51;;;;;;;2.53;2.10;;;;;;;20.05;74.37;98495.06;4172069;28;20638;-77
2023/06/27 03:23:55;;;;;;;3.47;2.73;;;;;;;20.00;75.77;98494.69;4151505;28;20630;-78
2023/06/27 03:25:58;;;;;;;5.00;2.50;;;;;;;19.99;74.30;98503.63;4152194;28;21056;-78
2023/06/27 03:28:03;;;;;;;4.60;2.10;;;;;;;19.97;72.89;98498.47;4174547;28;20740;-78
2023/06/27 03:30:14;;;;;;;3.33;2.40;;;;;;;19.95;74.55;98500.44;4173219;28;20731;-78
2023/06/27 03:32:18;;;;;;;3.50;2.30;;;;;;;19.92;74.03;98506.06;4159918;28;20661;-78
2023/06/27 03:34:24;;;;;;;3.30;2.30;;;;;;;19.89;74.51;98497.56;4169632;28;20672;-77
2023/06/27 03:36:33;;;;;;;3.77;2.83;;;;;;;19.84;74.76;98510.41;4174437;28;21020;-77
2023/06/27 03:38:37;;;;;;;3.20;2.20;;;;;;;19.80;74.72;98505.56;4155421;28;21089;-78
2023/06/27 03:40:40;;;;;;;3.73;2.80;;;;;;;19.79;75.76;98509.22;4175334;28;20704;-78
2023/06/27 03:42:43;;;;;;;3.13;2.37;;;;;;;19.75;75.50;98513.94;4168339;28;20638;-78
2023/06/27 03:44:47;;;;;;;2.77;2.47;;;;;;;19.74;75.30;98509.66;4171543;28;20630;-78
2023/06/27 03:46:51;;;;;;;4.07;2.40;;;;;;;19.75;74.68;98506.00;4151201;28;21284;-77
2023/06/27 03:48:58;;;;;;;3.27;2.67;;;;;;;19.75;75.77;98521.91;4182640;28;21090;-78
2023/06/27 03:51:01;;;;;;;4.27;2.40;;;;;;;19.75;75.87;98519.25;4174352;28;20762;-77
2023/06/27 03:53:06;;;;;;;2.50;2.30;;;;;;;19.75;74.11;98516.59;4159781;28;20685;-77
2023/06/27 03:55:09;;;;;;;3.57;2.57;;;;;;;19.74;75.04;98509.66;4170265;28;21262;-77
2023/06/27 03:57:13;;;;;;;3.17;2.47;;;;;;;19.71;75.85;98512.59;4172563;28;21224;-77
2023/06/27 03:59:16;;;;;;;2.57;2.23;;;;;;;19.65;74.72;98515.84;4159703;28;20695;-77
2023/06/27 04:01:19;;;;;;;3.90;2.33;;;;;;;19.62;75.47;98520.59;4171720;28;20754;-77
2023/06/27 04:03:22;;;;;;;3.20;2.30;;;;;;;19.61;74.44;98522.41;4158389;28;20634;-77
2023/06/27 04:05:26;;;;;;;3.20;2.57;;;;;;;19.60;74.49;98518.09;4167556;28;20621;-77
2023/06/27 04:07:29;;;;;;;3.10;2.60;;;;;;;19.63;73.86;98523.09;4145322;28;20653;-78
2023/06/27 04:09:34;;;;;;;3.33;2.30;;;;;;;19.64;75.82;98529.25;4152634;28;20626;-77
2023/06/27 04:11:38;;;;;;;4.10;2.80;;;;;;;19.64;75.61;98516.81;4167279;28;20657;-77
2023/06/27 04:13:41;;;;;;;3.10;2.60;;;;;;;19.64;75.26;98524.78;4156987;28;21214;-77
2023/06/27 04:15:47;;;;;;;2.60;1.87;;;;;;;19.63;74.65;98522.28;4170410;28;20626;-78
2023/06/27 04:17:50;;;;;;;7.10;2.37;;;;;;;19.62;75.10;98528.53;4156506;28;21268;-77
2023/06/27 04:19:54;;;;;;;3.50;2.60;;;;;;;19.62;74.51;98524.09;4169630;28;20680;-77
2023/06/27 04:21:57;;;;;;;5.77;3.30;;;;;;;19.62;75.03;98529.38;4169502;28;21184;-77
2023/06/27 04:24:01;;;;;;;2.93;2.50;;;;;;;19.61;75.82;98535.66;4155671;28;20628;-78
2023/06/27 04:26:07;;;;;;;3.47;2.10;;;;;;;19.61;75.45;98522.41;4159422;28;20724;-77
2023/06/27 04:28:13;;;;;;;3.93;2.70;;;;;;;19.61;74.91;98527.72;4151707;28;20638;-77
2023/06/27 04:30:16;;;;;;;2.87;2.20;;;;;;;19.61;75.03;98530.34;4171375;28;21014;-77
2023/06/27 04:32:19;;;;;;;3.70;2.50;;;;;;;19.61;75.52;98524.25;4173487;28;20710;-78
2023/06/27 04:34:22;;;;;;;4.87;2.53;;;;;;;19.61;75.24;98530.34;4170453;28;20637;-77
2023/06/27 04:36:26;;;;;;;7.43;2.70;;;;;;;19.62;75.26;98537.34;4172030;28;20639;-77
2023/06/27 04:38:30;;;;;;;3.83;2.63;;;;;;;19.61;74.54;98534.84;4171098;28;20640;-78
2023/06/27 04:40:33;;;;;;;2.73;2.30;;;;;;;19.63;73.57;98533.69;4170257;28;20641;-77
2023/06/27 04:42:37;;;;;;;3.60;2.40;;;;;;;19.61;74.16;98537.47;4150422;28;20760;-79
2023/06/27 04:44:41;;;;;;;3.47;2.70;;;;;;;19.61;75.82;98546.25;4182824;28;20661;-78
2023/06/27 04:46:44;;;;;;;4.47;2.80;;;;;;;19.61;74.70;98546.25;4172495;28;20645;-77
2023/06/27 04:48:47;;;;;;;3.53;2.60;;;;;;;19.61;76.16;98548.88;4168328;28;20699;-77
2023/06/27 04:50:50;;;;;;;4.13;2.80;;;;;;;19.62;75.13;98555.00;4169458;28;20622;-78
2023/06/27 04:52:53;;;;;;;3.70;2.80;;;;;;;19.62;76.52;98547.06;4171670;28;20642;-77
2023/06/27 04:54:57;;;;;;;2.97;2.60;;;;;;;19.63;75.43;98554.84;4166701;28;20664;-78
2023/06/27 04:57:00;;;;;;;3.90;2.60;;;;;;;19.62;75.18;98547.06;4149572;28;21188;-78
2023/06/27 04:59:08;;;;;;;3.47;2.50;;;;;;;19.60;76.05;98549.88;4168927;28;20639;-78
2023/06/27 05:01:11;;;;;;;3.13;2.73;;;;;;;19.61;76.01;98548.06;4167167;28;20655;-78
2023/06/27 05:03:14;;;;;;;4.10;2.80;;;;;;;19.61;75.51;98554.19;4168847;28;20665;-78
2023/06/27 05:05:18;;;;;;;4.60;2.90;;;;;;;19.60;75.53;98547.22;4174628;28;20641;-78
2023/06/27 05:07:21;;;;;;;3.90;2.67;;;;;;;19.63;75.81;98554.84;4149115;28;20706;-78
2023/06/27 05:09:24;;;;;;;3.30;2.80;;;;;;;19.63;74.64;98554.03;4172297;28;20629;-78
2023/06/27 05:11:28;;;;;;;2.77;2.40;;;;;;;19.66;74.43;98559.84;4169297;28;20638;-78
2023/06/27 05:13:31;;;;;;;5.50;3.00;;;;;;;19.70;76.35;98560.41;4169021;28;20750;-78
2023/06/27 05:15:36;;;;;;;3.60;3.10;;;;;;;19.72;75.88;98559.25;4150423;28;20741;-78
2023/06/27 05:17:39;;;;;;;4.23;2.60;;;;;;;19.74;76.73;98553.81;4170307;28;20969;-78
2023/06/27 05:19:42;;;;;;;4.00;3.17;;;;;;;19.72;75.64;98553.97;4156963;28;20732;-78
2023/06/27 05:21:45;;;;;;;3.63;2.70;;;;;;;19.72;76.03;98553.97;4143148;28;20645;-78
2023/06/27 05:23:49;;;;;;;6.17;2.60;;;;;;;19.75;76.16;98558.97;4171150;28;20641;-78
2023/06/27 05:25:52;;;;;;;5.10;2.80;;;;;;;19.83;76.13;98567.84;4152548;28;20640;-78
2023/06/27 05:27:55;;;;;;;4.40;2.70;;;;;;;19.91;74.80;98564.47;4167738;28;20978;-78
2023/06/27 05:29:58;;;;;;;3.50;2.70;;;;;;;20.02;73.54;98558.94;4170226;28;21101;-78
2023/06/27 05:32:03;;;;;;;7.00;3.57;;;;;;;20.14;72.72;98563.84;4167121;28;20648;-78
2023/06/27 05:34:07;;;;;;;4.80;2.90;;;;;;;20.24;72.89;98563.78;4165462;28;20657;-78
2023/06/27 05:36:10;;;;;;;4.53;2.63;;;;;;;20.30;71.72;98560.50;4152402;28;20737;-78
2023/06/27 05:38:14;;;;;;;3.47;2.83;;;;;;;20.35;70.70;98565.19;4171161;28;21185;-78
2023/06/27 05:40:17;;;;;;;4.33;2.60;;;;;;;20.38;71.31;98566.72;4172655;28;20648;-78
2023/06/27 05:42:20;;;;;;;3.40;2.50;;;;;;;20.42;72.78;98568.91;4152452;28;21482;-78
2023/06/27 05:44:23;;;;;;;4.80;2.80;;;;;;;20.51;73.88;98573.28;4171445;28;21036;-78
2023/06/27 05:46:26;;;;;;;5.37;2.47;;;;;;;20.55;73.57;98572.00;4171899;28;20670;-78
2023/06/27 05:48:31;;;;;;;6.83;2.47;;;;;;;20.61;73.79;98575.81;4174850;28;20629;-78
2023/06/27 05:50:34;;;;;;;2.90;2.40;;;;;;;20.66;73.22;98577.03;4166373;28;20633;-78
2023/06/27 05:52:37;;;;;;;3.70;2.50;;;;;;;20.77;73.37;98576.81;4166976;28;27770;-78
2023/06/27 05:54:41;;;;;;;3.80;2.70;;;;;;;20.89;72.77;98576.38;4168189;28;20649;-78
2023/06/27 05:56:44;;;;;;;4.77;2.57;;;;;;;21.00;73.82;98576.16;4171312;28;20637;-78
2023/06/27 05:58:47;;;;;;;3.30;2.47;;;;;;;21.12;73.03;98582.00;4171175;28;20617;-78
2023/06/27 06:00:51;;;;;;;3.70;2.10;;;;;;;21.19;72.02;98572.44;4153544;28;20651;-78
2023/06/27 06:02:54;;;;;;;3.80;2.53;;;;;;;21.25;70.51;98571.78;4169302;28;20631;-78
2023/06/27 06:05:00;;;;;;;3.90;2.00;;;;;;;21.35;69.20;98576.00;4157574;28;20624;-78
2023/06/27 06:07:04;;;;;;;3.47;2.20;;;;;;;21.48;68.39;98571.91;4172819;28;20650;-78
2023/06/27 06:09:08;;;;;;;3.13;2.33;;;;;;;21.57;66.49;98584.22;4166276;28;20665;-78
2023/06/27 06:11:11;;;;;;;5.93;2.33;;;;;;;21.63;67.35;98578.28;4165806;28;20635;-78
2023/06/27 06:13:14;;;;;;;2.70;1.93;;;;;;;21.69;67.02;98580.28;4172908;28;20638;-78
2023/06/27 06:15:18;;;;;;;2.73;2.00;;;;;;;21.67;67.23;98571.66;4158484;28;20687;-78
2023/06/27 06:17:21;;;;;;;3.50;2.27;;;;;;;21.70;66.83;98578.47;4168159;28;20655;-78
2023/06/27 06:19:24;;;;;;;5.20;1.70;;;;;;;21.71;63.95;98575.66;4149180;28;20715;-78
2023/06/27 06:21:29;;;;;;;3.80;1.90;;;;;;;21.73;65.75;98578.97;4166310;28;20674;-78
2023/06/27 06:23:32;;;;;;;3.13;1.80;;;;;;;21.80;63.97;98572.03;4171515;28;20672;-78
2023/06/27 06:25:35;;;;;;;3.43;1.97;;;;;;;21.85;64.03;98559.91;4172429;28;20671;-78
2023/06/27 06:27:38;;;;;;;3.77;1.70;;;;;;;21.92;65.29;98568.03;4168957;28;21157;-78
2023/06/27 06:29:42;;;;;;;3.30;1.63;;;;;;;21.93;63.88;98575.84;4169854;28;21000;-78
2023/06/27 06:31:45;;;;;;;2.40;1.60;;;;;;;21.99;63.00;98574.38;4158496;28;21053;-78
2023/06/27 06:33:49;;;;;;;2.90;1.77;;;;;;;22.05;61.51;98568.41;4168994;28;20667;-77
2023/06/27 06:35:52;;;;;;;3.10;1.93;;;;;;;22.10;61.21;98571.41;4167662;28;20672;-78
2023/06/27 06:37:57;;;;;;;2.70;1.63;;;;;;;22.11;60.77;98575.75;4169399;28;20730;-78
2023/06/27 06:40:00;;;;;;;2.97;1.67;;;;;;;22.10;60.55;98577.56;4172701;28;20857;-78
2023/06/27 06:42:04;;;;;;;3.67;1.60;;;;;;;22.34;60.63;98580.25;4158778;28;20737;-78
2023/06/27 06:44:07;;;;;;;2.70;1.50;;;;;;;22.59;60.54;98593.41;4164673;28;20640;-78
2023/06/27 06:46:10;;;;;;;2.90;1.80;;;;;;;22.71;60.00;98596.56;4152132;28;20703;-78
2023/06/27 06:48:14;;;;;;;3.70;1.50;;;;;;;22.67;58.57;98598.72;4171616;28;20632;-78
2023/06/27 06:50:17;;;;;;;3.40;1.90;;;;;;;22.55;59.79;98592.09;4174294;28;20623;-78
2023/06/27 06:52:20;;;;;;;5.03;1.93;;;;;;;22.35;58.76;98574.78;4169298;28;20635;-78
2023/06/27 06:54:24;;;;;;;3.13;1.90;;;;;;;22.32;59.66;98575.09;4173877;28;20761;-78
2023/06/27 06:56:28;;;;;;;2.27;1.60;;;;;;;22.33;60.28;98578.63;4170329;28;20614;-78
2023/06/27 06:58:31;;;;;;;1.97;1.40;;;;;;;22.39;60.45;98578.78;4154776;28;20685;-78
2023/06/27 07:00:34;;;;;;;1.90;1.33;;;;;;;22.45;60.98;98594.06;4178233;28;20650;-78
2023/06/27 07:02:37;;;;;;;2.63;1.60;;;;;;;22.41;59.92;98586.59;4162310;28;20742;-78
2023/06/27 07:04:41;;;;;;;2.33;1.47;;;;;;;22.38;60.12;98582.44;4174551;28;20721;-78
2023/06/27 07:06:44;;;;;;;5.60;2.13;;;;;;;22.42;59.97;98580.28;4172823;28;20757;-78
2023/06/27 07:08:47;;;;;;;2.67;1.60;;;;;;;22.48;60.07;98584.94;4156457;28;20729;-78
2023/06/27 07:10:52;;;;;;;2.20;1.63;;;;;;;22.52;61.28;98588.91;4174354;28;20640;-78
2023/06/27 07:12:55;;;;;;;2.30;1.53;;;;;;;22.71;59.86;98594.72;4172434;28;20669;-78
2023/06/27 07:14:58;;;;;;;2.70;1.67;;;;;;;23.12;60.26;98601.69;4170704;28;20653;-76
2023/06/27 07:17:01;;;;;;;4.40;1.87;;;;;;;23.28;59.76;98605.97;4156688;28;20772;-78
2023/06/27 07:19:06;;;;;;;2.20;1.60;;;;;;;23.27;59.41;98593.66;4164324;28;20676;-81
2023/06/27 07:21:10;;;;;;;5.00;2.07;;;;;;;23.16;58.63;98595.03;4163393;28;20639;-81
2023/06/27 07:23:15;;;;;;;2.30;1.70;;;;;;;23.04;58.82;98596.38;4168783;28;20667;-81
2023/06/27 07:25:19;;;;;;;2.23;1.50;;;;;;;23.02;58.22;98579.72;4166044;28;20724;-80
2023/06/27 07:27:23;;;;;;;3.10;1.83;;;;;;;22.97;58.90;98582.94;4169963;28;20638;-80
2023/06/27 07:29:27;;;;;;;3.20;1.70;;;;;;;22.97;58.30;98587.41;4184899;28;20645;-81
2023/06/27 07:31:30;;;;;;;4.40;1.83;;;;;;;22.88;58.70;98583.91;4171075;28;20628;-80
2023/06/27 07:33:34;;;;;;;2.57;1.80;;;;;;;22.89;59.09;98588.22;4159130;28;21075;-80
2023/06/27 07:35:37;;;;;;;3.40;1.87;;;;;;;22.93;58.83;98588.72;4170390;28;20767;-79
2023/06/27 07:37:40;;;;;;;2.87;2.10;;;;;;;22.90;58.51;98589.06;4154798;28;21046;-81
2023/06/27 07:39:43;;;;;;;5.40;1.77;;;;;;;22.93;58.67;98583.41;4170661;28;20636;-79
2023/06/27 07:41:46;;;;;;;4.17;1.53;;;;;;;22.95;58.36;98582.25;4155497;28;20660;-79
2023/06/27 07:43:51;;;;;;;3.00;1.80;;;;;;;23.01;57.56;98580.75;4182164;28;21199;-78
2023/06/27 07:45:54;;;;;;;2.60;1.70;;;;;;;23.05;57.90;98584.72;4165024;28;20633;-79
2023/06/27 07:47:57;;;;;;;3.13;1.40;;;;;;;23.18;58.07;98593.84;4165651;28;20628;-79
2023/06/27 07:50:01;;;;;;;2.57;1.70;;;;;;;23.30;58.02;98596.00;4170846;28;20637;-79
2023/06/27 07:52:05;;;;;;;2.37;1.50;;;;;;;23.31;57.32;98592.31;4161309;28;21063;-79
2023/06/27 07:54:09;;;;;;;3.00;1.63;;;;;;;23.30;56.97;98596.00;4166910;28;20629;-79
2023/06/27 07:56:12;;;;;;;3.10;1.63;;;;;;;23.17;57.66;98594.88;4172424;28;20668;-79
2023/06/27 07:58:16;;;;;;;5.13;2.07;;;;;;;23.33;59.80;98598.31;4172371;28;20734;-79
2023/06/27 08:00:22;;;;;;;3.43;1.40;;;;;;;23.58;60.48;98591.88;4183647;28;20655;-80
2023/06/27 08:02:26;;;;;;;4.93;1.53;;;;;;;23.99;60.65;98602.19;4166654;28;20631;-77
2023/06/27 08:04:29;;;;;;;3.50;1.60;;;;;;;24.52;59.28;98594.19;4164393;28;20631;-77
2023/06/27 08:06:32;;;;;;;4.63;1.77;;;;;;;24.74;58.54;98594.16;4170143;28;20658;-77
2023/06/27 08:08:37;;;;;;;4.47;1.60;;;;;;;24.80;56.40;98601.44;4168837;28;20677;-77
2023/06/27 08:10:41;;;;;;;1.90;1.50;;;;;;;24.73;55.29;98592.50;4149678;28;20768;-77
2023/06/27 08:12:44;;;;;;;3.20;1.67;;;;;;;24.60;54.86;98592.28;4166374;28;20660;-77
2023/06/27 08:14:49;;;;;;;2.27;1.33;;;;;;;24.47;55.11;98588.56;4154271;28;20692;-77
2023/06/27 08:16:54;;;;;;;2.77;1.60;;;;;;;24.37;55.83;98591.47;4154261;28;21064;-77
2023/06/27 08:18:57;;;;;;;3.30;1.43;;;;;;;24.32;56.59;98580.50;4165245;28;20741;-77
2023/06/27 08:21:00;;;;;;;2.60;1.93;;;;;;;24.32;56.86;98582.31;4169213;28;20666;-78
2023/06/27 08:23:03;;;;;;;2.30;1.50;;;;;;;24.25;57.33;98568.84;4152167;28;20631;-77
2023/06/27 08:25:07;;;;;;;3.20;1.77;;;;;;;24.24;58.72;98567.19;4160034;28;20644;-77
2023/06/27 08:27:10;;;;;;;2.80;1.83;;;;;;;24.14;55.86;98562.28;4158367;28;20632;-77
2023/06/27 08:29:13;;;;;;;2.63;1.87;;;;;;;24.14;57.80;98570.28;4170749;28;20750;-77
2023/06/27 08:31:16;;;;;;;3.50;1.63;;;;;;;24.18;56.27;98551.91;4172778;28;20724;-77
2023/06/27 08:33:21;;;;;;;2.00;1.53;;;;;;;24.26;56.17;98554.50;4174979;28;21233;-77
2023/06/27 08:35:24;;;;;;;2.03;1.60;;;;;;;24.20;55.98;98543.72;4170488;28;20649;-77
2023/06/27 08:37:32;;;;;;;2.90;1.87;;;;;;;24.15;54.88;98546.91;4165559;28;21076;-77
2023/06/27 08:39:36;;;;;;;2.87;1.47;;;;;;;24.18;56.03;98557.22;4166838;28;21212;-77
2023/06/27 08:41:39;;;;;;;2.03;1.60;;;;;;;24.25;55.19;98550.19;4172752;28;24670;-77
2023/06/27 08:43:43;;;;;;;2.70;1.90;;;;;;;24.27;56.04;98553.50;4153152;28;21062;-77
2023/06/27 08:45:46;;;;;;;2.93;1.37;;;;;;;24.34;56.50;98549.16;4161291;28;20644;-77
2023/06/27 08:47:50;;;;;;;3.00;1.50;;;;;;;24.41;54.42;98550.06;4166144;28;20621;-78
2023/06/27 08:50:00;;;;;;;3.47;2.50;;;;;;;24.34;54.20;98549.16;4173184;28;21401;-77
2023/06/27 08:52:04;;;;;;;3.53;1.50;;;;;;;24.15;55.00;98538.91;4181410;28;20702;-77
2023/06/27 08:54:14;;;;;;;4.67;1.60;;;;;;;23.92;55.28;98541.75;4156574;28;20679;-77
2023/06/27 08:56:20;;;;;;;3.77;1.93;;;;;;;24.04;58.33;98535.00;4164436;28;21817;-76
2023/06/27 08:58:25;;;;;;;2.70;1.60;;;;;;;24.13;56.04;98532.13;4166032;28;20638;-76
2023/06/27 09:00:30;;;;;;;2.70;1.90;;;;;;;24.10;55.27;98534.28;4168091;28;20639;-75
2023/06/27 09:02:34;;;;;;;2.80;1.67;;;;;;;24.19;55.68;98531.38;4158440;28;20682;-76
2023/06/27 09:04:37;;;;;;;4.27;1.80;;;;;;;24.19;54.49;98526.91;4168817;28;20651;-76
2023/06/27 09:06:43;;;;;;;3.27;1.70;;;;;;;24.24;56.24;98529.84;4168462;28;20717;-76
2023/06/27 09:08:47;;;;;;;2.10;1.60;;;;;;;24.34;55.30;98535.81;4183872;28;21227;-76
2023/06/27 09:10:50;;;;;;;3.33;1.50;;;;;;;24.56;58.80;98542.13;4169207;28;20658;-76
2023/06/27 09:12:54;;;;;;;2.33;1.50;;;;;;;24.65;57.05;98540.00;4157315;28;20645;-76
2023/06/27 09:14:58;;;;;;;2.93;2.00;;;;;;;24.98;56.24;98543.22;4184818;28;20922;-76
2023/06/27 09:17:03;;;;;;;2.63;1.60;;;;;;;25.34;56.58;98540.47;4171154;28;20679;-76
2023/06/27 09:19:08;;;;;;;3.57;1.73;;;;;;;25.60;54.71;98538.97;4169391;28;20689;-76
2023/06/27 09:21:12;;;;;;;2.50;1.80;;;;;;;25.83;54.04;98542.38;4156316;28;21269;-76
2023/06/27 09:23:16;;;;;;;7.03;4.03;;;;;;;26.05;54.35;98546.69;4171589;28;20721;-76
2023/06/27 09:25:20;;;;;;;3.07;1.73;;;;;;;26.12;59.33;98551.09;4161117;28;20629;-76
2023/06/27 09:27:30;;;;;;;3.90;1.47;;;;;;;26.20;57.77;98539.47;4164775;28;20645;-76
2023/06/27 09:29:35;;;;;;;8.80;2.80;;;;;;;26.32;60.51;98546.00;4166609;28;20636;-76
2023/06/27 09:31:42;;;;;;;3.27;1.80;;;;;;;26.50;59.48;98551.72;4155458;28;20629;-76
2023/06/27 09:33:47;;;;;;;3.53;1.67;;;;;;;26.57;56.65;98540.88;4155274;28;20640;-75
2023/06/27 09:35:51;;;;;;;3.07;1.77;;;;;;;26.60;59.20;98534.31;4167593;28;21339;-75
2023/06/27 09:38:05;;;;;;;2.23;1.60;;;;;;;26.52;61.17;98531.75;4167013;28;20671;-76
2023/06/27 09:40:21;;;;;;;2.73;1.80;;;;;;;26.35;54.42;98532.22;4175188;28;20670;-75
2023/06/27 09:42:30;;;;;;;4.03;1.50;;;;;;;26.18;53.56;98520.91;4164876;28;20632;-75
2023/06/27 09:44:33;;;;;;;1.90;1.40;;;;;;;25.98;54.71;98531.59;4150933;28;20930;-75